sensor_id;sensor_type;location;lat;lon;timestamp;temperature;humidity
17489;DHT22;8861;52.644;4.734;2023-05-16T00:01:10;8.70;99.90
17489;DHT22;8861;52.644;4.734;2023-05-16T00:03:37;8.60;99.90
17489;DHT22;8861;52.644;4.734;2023-05-16T00:06:06;8.60;99.90
17489;DHT22;8861;52.644;4.734;2023-05-16T00:08:33;8.60;99.90
17489;DHT22;8861;52.644;4.734;2023-05-16T00:11:00;8.60;99.90
17489;DHT22;8861;52.644;4.734;2023-05-16T00:13:28;8.60;99.90
17489;DHT22;8861;52.644;4.734;2023-05-16T00:15:57;8.60;99.90
17489;DHT22;8861;52.644;4.734;2023-05-16T00:18:27;8.60;99.90
17489;DHT22;8861;52.644;4.734;2023-05-16T00:20:53;8.60;99.90
17489;DHT22;8861;52.644;4.734;2023-05-16T00:23:22;8.60;99.90
17489;DHT22;8861;52.644;4.734;2023-05-16T00:25:50;8.50;99.90
17489;DHT22;8861;52.644;4.734;2023-05-16T00:28:16;8.50;99.90
17489;DHT22;8861;52.644;4.734;2023-05-16T00:30:43;8.40;99.90
17489;DHT22;8861;52.644;4.734;2023-05-16T00:33:10;8.40;99.90
17489;DHT22;8861;52.644;4.734;2023-05-16T00:35:37;8.40;99.90
17489;DHT22;8861;52.644;4.734;2023-05-16T00:38:04;8.50;99.90
17489;DHT22;8861;52.644;4.734;2023-05-16T00:40:33;8.60;99.90
17489;DHT22;8861;52.644;4.734;2023-05-16T00:43:00;8.60;99.90
17489;DHT22;8861;52.644;4.734;2023-05-16T00:45:27;8.60;99.90
17489;DHT22;8861;52.644;4.734;2023-05-16T00:47:54;8.60;99.90
17489;DHT22;8861;52.644;4.734;2023-05-16T00:50:20;8.50;99.90
17489;DHT22;8861;52.644;4.734;2023-05-16T00:52:47;8.50;99.90
17489;DHT22;8861;52.644;4.734;2023-05-16T00:55:14;8.50;99.90
17489;DHT22;8861;52.644;4.734;2023-05-16T00:57:43;8.40;99.90
17489;DHT22;8861;52.644;4.734;2023-05-16T01:00:10;8.40;99.90
17489;DHT22;8861;52.644;4.734;2023-05-16T01:02:40;8.40;99.90
17489;DHT22;8861;52.644;4.734;2023-05-16T01:05:07;8.40;99.90
17489;DHT22;8861;52.644;4.734;2023-05-16T01:07:34;8.40;99.90
17489;DHT22;8861;52.644;4.734;2023-05-16T01:10:02;8.50;99.90
17489;DHT22;8861;52.644;4.734;2023-05-16T01:12:36;8.50;99.90
17489;DHT22;8861;52.644;4.734;2023-05-16T01:15:08;8.50;99.90
17489;DHT22;8861;52.644;4.734;2023-05-16T01:17:44;8.50;99.90
17489;DHT22;8861;52.644;4.734;2023-05-16T01:20:19;8.40;99.90
17489;DHT22;8861;52.644;4.734;2023-05-16T01:23:04;8.40;99.90
17489;DHT22;8861;52.644;4.734;2023-05-16T01:25:42;8.40;99.90
17489;DHT22;8861;52.644;4.734;2023-05-16T01:28:15;8.40;99.90
17489;DHT22;8861;52.644;4.734;2023-05-16T01:30:42;8.40;99.90
17489;DHT22;8861;52.644;4.734;2023-05-16T01:33:09;8.40;99.90
17489;DHT22;8861;52.644;4.734;2023-05-16T01:35:42;8.40;99.90
17489;DHT22;8861;52.644;4.734;2023-05-16T01:38:15;8.40;99.90
17489;DHT22;8861;52.644;4.734;2023-05-16T01:40:49;8.40;99.90
17489;DHT22;8861;52.644;4.734;2023-05-16T01:43:24;8.30;99.90
17489;DHT22;8861;52.644;4.734;2023-05-16T01:46:01;8.40;99.90
17489;DHT22;8861;52.644;4.734;2023-05-16T01:48:34;8.40;99.90
17489;DHT22;8861;52.644;4.734;2023-05-16T01:51:03;8.50;99.90
17489;DHT22;8861;52.644;4.734;2023-05-16T01:53:35;8.60;99.90
17489;DHT22;8861;52.644;4.734;2023-05-16T01:56:05;8.70;99.90
17489;DHT22;8861;52.644;4.734;2023-05-16T01:58:36;8.70;99.90
17489;DHT22;8861;52.644;4.734;2023-05-16T02:01:04;8.70;99.90
17489;DHT22;8861;52.644;4.734;2023-05-16T02:03:32;8.90;99.90
17489;DHT22;8861;52.644;4.734;2023-05-16T02:05:59;8.90;99.90
17489;DHT22;8861;52.644;4.734;2023-05-16T02:08:27;9.00;99.90
17489;DHT22;8861;52.644;4.734;2023-05-16T02:10:54;9.00;99.90
17489;DHT22;8861;52.644;4.734;2023-05-16T02:13:21;9.10;99.90
17489;DHT22;8861;52.644;4.734;2023-05-16T02:15:49;9.00;99.90
17489;DHT22;8861;52.644;4.734;2023-05-16T02:18:16;9.00;99.90
17489;DHT22;8861;52.644;4.734;2023-05-16T02:20:43;8.90;99.90
17489;DHT22;8861;52.644;4.734;2023-05-16T02:23:10;8.80;99.90
17489;DHT22;8861;52.644;4.734;2023-05-16T02:25:37;8.80;99.90
17489;DHT22;8861;52.644;4.734;2023-05-16T02:28:04;8.70;99.90
17489;DHT22;8861;52.644;4.734;2023-05-16T02:30:31;8.70;99.90
17489;DHT22;8861;52.644;4.734;2023-05-16T02:32:59;8.60;99.90
17489;DHT22;8861;52.644;4.734;2023-05-16T02:35:26;8.70;99.90
17489;DHT22;8861;52.644;4.734;2023-05-16T02:37:53;8.70;99.90
17489;DHT22;8861;52.644;4.734;2023-05-16T02:40:21;8.80;99.90
17489;DHT22;8861;52.644;4.734;2023-05-16T02:42:47;8.80;99.90
17489;DHT22;8861;52.644;4.734;2023-05-16T02:45:14;8.80;99.90
17489;DHT22;8861;52.644;4.734;2023-05-16T02:47:41;8.70;99.90
17489;DHT22;8861;52.644;4.734;2023-05-16T02:50:10;8.70;99.90
17489;DHT22;8861;52.644;4.734;2023-05-16T02:52:36;8.70;99.90
17489;DHT22;8861;52.644;4.734;2023-05-16T02:55:04;8.70;99.90
17489;DHT22;8861;52.644;4.734;2023-05-16T02:57:32;8.70;99.90
17489;DHT22;8861;52.644;4.734;2023-05-16T02:59:59;8.60;99.90
17489;DHT22;8861;52.644;4.734;2023-05-16T03:02:26;8.60;99.90
17489;DHT22;8861;52.644;4.734;2023-05-16T03:04:52;8.70;99.90
17489;DHT22;8861;52.644;4.734;2023-05-16T03:07:21;8.70;99.90
17489;DHT22;8861;52.644;4.734;2023-05-16T03:09:48;8.70;99.90
17489;DHT22;8861;52.644;4.734;2023-05-16T03:12:14;8.80;99.90
17489;DHT22;8861;52.644;4.734;2023-05-16T03:14:42;8.80;99.90
17489;DHT22;8861;52.644;4.734;2023-05-16T03:17:09;8.80;99.90
17489;DHT22;8861;52.644;4.734;2023-05-16T03:19:36;8.80;99.90
17489;DHT22;8861;52.644;4.734;2023-05-16T03:22:03;8.80;99.90
17489;DHT22;8861;52.644;4.734;2023-05-16T03:24:31;8.80;99.90
17489;DHT22;8861;52.644;4.734;2023-05-16T03:26:58;8.80;99.90
17489;DHT22;8861;52.644;4.734;2023-05-16T03:29:25;8.80;99.90
17489;DHT22;8861;52.644;4.734;2023-05-16T03:31:52;8.80;99.90
17489;DHT22;8861;52.644;4.734;2023-05-16T03:34:19;8.80;99.90
17489;DHT22;8861;52.644;4.734;2023-05-16T03:36:47;8.80;99.90
17489;DHT22;8861;52.644;4.734;2023-05-16T03:39:14;8.80;99.90
17489;DHT22;8861;52.644;4.734;2023-05-16T03:41:43;8.80;99.90
17489;DHT22;8861;52.644;4.734;2023-05-16T03:44:10;8.70;99.90
17489;DHT22;8861;52.644;4.734;2023-05-16T03:46:37;8.70;99.90
17489;DHT22;8861;52.644;4.734;2023-05-16T03:49:04;8.70;99.90
17489;DHT22;8861;52.644;4.734;2023-05-16T03:51:31;8.80;99.90
17489;DHT22;8861;52.644;4.734;2023-05-16T03:53:58;8.80;99.90
17489;DHT22;8861;52.644;4.734;2023-05-16T03:56:25;8.80;99.90
17489;DHT22;8861;52.644;4.734;2023-05-16T03:58:53;8.80;99.90
17489;DHT22;8861;52.644;4.734;2023-05-16T04:01:20;8.90;99.90
17489;DHT22;8861;52.644;4.734;2023-05-16T04:03:47;8.90;99.90
17489;DHT22;8861;52.644;4.734;2023-05-16T04:06:15;8.90;99.90
17489;DHT22;8861;52.644;4.734;2023-05-16T04:08:42;9.00;99.90
17489;DHT22;8861;52.644;4.734;2023-05-16T04:11:09;9.10;99.90
17489;DHT22;8861;52.644;4.734;2023-05-16T04:13:36;9.10;99.90
17489;DHT22;8861;52.644;4.734;2023-05-16T04:16:05;9.20;99.90
17489;DHT22;8861;52.644;4.734;2023-05-16T04:18:32;9.20;99.90
17489;DHT22;8861;52.644;4.734;2023-05-16T04:20:59;9.10;99.90
17489;DHT22;8861;52.644;4.734;2023-05-16T04:23:27;9.10;99.90
17489;DHT22;8861;52.644;4.734;2023-05-16T04:25:54;9.10;99.90
17489;DHT22;8861;52.644;4.734;2023-05-16T04:28:21;9.10;99.90
17489;DHT22;8861;52.644;4.734;2023-05-16T04:30:48;9.10;99.90
17489;DHT22;8861;52.644;4.734;2023-05-16T04:33:19;9.10;99.90
17489;DHT22;8861;52.644;4.734;2023-05-16T04:35:46;9.20;99.90
17489;DHT22;8861;52.644;4.734;2023-05-16T04:38:14;9.20;99.90
17489;DHT22;8861;52.644;4.734;2023-05-16T04:40:41;9.30;99.90
17489;DHT22;8861;52.644;4.734;2023-05-16T04:43:08;9.40;99.90
17489;DHT22;8861;52.644;4.734;2023-05-16T04:45:35;9.50;99.90
17489;DHT22;8861;52.644;4.734;2023-05-16T04:48:02;9.70;99.90
17489;DHT22;8861;52.644;4.734;2023-05-16T04:50:30;9.80;99.90
17489;DHT22;8861;52.644;4.734;2023-05-16T04:52:57;9.80;99.90
17489;DHT22;8861;52.644;4.734;2023-05-16T04:55:24;9.80;99.90
17489;DHT22;8861;52.644;4.734;2023-05-16T04:57:51;9.80;99.90
17489;DHT22;8861;52.644;4.734;2023-05-16T05:00:18;9.80;99.90
17489;DHT22;8861;52.644;4.734;2023-05-16T05:02:45;9.80;99.90
17489;DHT22;8861;52.644;4.734;2023-05-16T05:05:12;9.80;99.90
17489;DHT22;8861;52.644;4.734;2023-05-16T05:07:40;9.80;99.90
17489;DHT22;8861;52.644;4.734;2023-05-16T05:10:08;9.80;99.90
17489;DHT22;8861;52.644;4.734;2023-05-16T05:12:35;9.80;99.90
17489;DHT22;8861;52.644;4.734;2023-05-16T05:15:02;9.90;99.90
17489;DHT22;8861;52.644;4.734;2023-05-16T05:17:29;10.00;99.90
17489;DHT22;8861;52.644;4.734;2023-05-16T05:19:56;10.00;99.90
17489;DHT22;8861;52.644;4.734;2023-05-16T05:22:23;10.10;99.90
17489;DHT22;8861;52.644;4.734;2023-05-16T05:24:51;10.30;99.90
17489;DHT22;8861;52.644;4.734;2023-05-16T05:27:18;10.50;99.90
17489;DHT22;8861;52.644;4.734;2023-05-16T05:29:45;10.60;99.90
17489;DHT22;8861;52.644;4.734;2023-05-16T05:32:12;10.50;99.90
17489;DHT22;8861;52.644;4.734;2023-05-16T05:34:38;10.50;99.90
17489;DHT22;8861;52.644;4.734;2023-05-16T05:37:05;10.40;99.90
17489;DHT22;8861;52.644;4.734;2023-05-16T05:39:32;10.40;99.90
17489;DHT22;8861;52.644;4.734;2023-05-16T05:42:00;10.50;99.90
17489;DHT22;8861;52.644;4.734;2023-05-16T05:44:28;10.70;99.90
17489;DHT22;8861;52.644;4.734;2023-05-16T05:46:55;10.90;99.90
17489;DHT22;8861;52.644;4.734;2023-05-16T05:49:22;11.00;99.90
17489;DHT22;8861;52.644;4.734;2023-05-16T05:51:50;11.10;99.90
17489;DHT22;8861;52.644;4.734;2023-05-16T05:54:17;11.20;99.90
17489;DHT22;8861;52.644;4.734;2023-05-16T05:56:45;11.30;99.90
17489;DHT22;8861;52.644;4.734;2023-05-16T05:59:13;11.50;99.90
17489;DHT22;8861;52.644;4.734;2023-05-16T06:01:40;11.50;99.90
17489;DHT22;8861;52.644;4.734;2023-05-16T06:04:08;11.40;99.90
17489;DHT22;8861;52.644;4.734;2023-05-16T06:06:36;11.20;99.90
17489;DHT22;8861;52.644;4.734;2023-05-16T06:09:04;11.00;99.90
17489;DHT22;8861;52.644;4.734;2023-05-16T06:11:31;10.90;99.90
17489;DHT22;8861;52.644;4.734;2023-05-16T06:13:58;10.80;99.90
17489;DHT22;8861;52.644;4.734;2023-05-16T06:16:26;10.70;99.90
17489;DHT22;8861;52.644;4.734;2023-05-16T06:18:53;10.70;99.90
17489;DHT22;8861;52.644;4.734;2023-05-16T06:21:20;10.80;99.90
17489;DHT22;8861;52.644;4.734;2023-05-16T06:23:47;10.80;99.90
17489;DHT22;8861;52.644;4.734;2023-05-16T06:26:14;10.80;99.90
17489;DHT22;8861;52.644;4.734;2023-05-16T06:28:41;11.00;99.90
17489;DHT22;8861;52.644;4.734;2023-05-16T06:31:08;11.20;99.90
17489;DHT22;8861;52.644;4.734;2023-05-16T06:33:36;11.30;99.90
17489;DHT22;8861;52.644;4.734;2023-05-16T06:36:03;11.40;99.90
17489;DHT22;8861;52.644;4.734;2023-05-16T06:38:30;11.50;99.90
17489;DHT22;8861;52.644;4.734;2023-05-16T06:40:57;11.70;99.90
17489;DHT22;8861;52.644;4.734;2023-05-16T06:43:24;11.90;99.90
17489;DHT22;8861;52.644;4.734;2023-05-16T06:45:51;12.00;99.90
17489;DHT22;8861;52.644;4.734;2023-05-16T06:48:17;12.10;99.90
17489;DHT22;8861;52.644;4.734;2023-05-16T06:50:48;12.10;99.90
17489;DHT22;8861;52.644;4.734;2023-05-16T06:53:16;12.10;99.90
17489;DHT22;8861;52.644;4.734;2023-05-16T06:55:43;12.10;99.90
17489;DHT22;8861;52.644;4.734;2023-05-16T06:58:10;12.20;99.90
17489;DHT22;8861;52.644;4.734;2023-05-16T07:00:37;12.20;99.90
17489;DHT22;8861;52.644;4.734;2023-05-16T07:03:04;12.10;99.90
17489;DHT22;8861;52.644;4.734;2023-05-16T07:05:31;11.90;99.90
17489;DHT22;8861;52.644;4.734;2023-05-16T07:07:59;11.80;99.90
17489;DHT22;8861;52.644;4.734;2023-05-16T07:10:26;11.80;99.90
17489;DHT22;8861;52.644;4.734;2023-05-16T07:12:53;11.80;99.90
17489;DHT22;8861;52.644;4.734;2023-05-16T07:15:21;11.80;99.90
17489;DHT22;8861;52.644;4.734;2023-05-16T07:17:47;11.90;99.90
17489;DHT22;8861;52.644;4.734;2023-05-16T07:20:15;12.00;99.90
17489;DHT22;8861;52.644;4.734;2023-05-16T07:22:42;12.20;99.90
17489;DHT22;8861;52.644;4.734;2023-05-16T07:25:10;12.30;99.90
17489;DHT22;8861;52.644;4.734;2023-05-16T07:27:39;12.40;99.90
17489;DHT22;8861;52.644;4.734;2023-05-16T07:30:10;12.50;99.90
17489;DHT22;8861;52.644;4.734;2023-05-16T07:32:37;12.60;99.90
17489;DHT22;8861;52.644;4.734;2023-05-16T07:35:05;12.60;99.90
17489;DHT22;8861;52.644;4.734;2023-05-16T07:37:32;12.60;99.90
17489;DHT22;8861;52.644;4.734;2023-05-16T07:39:59;12.60;99.90
17489;DHT22;8861;52.644;4.734;2023-05-16T07:42:27;12.60;99.90
17489;DHT22;8861;52.644;4.734;2023-05-16T07:44:54;12.70;99.90
17489;DHT22;8861;52.644;4.734;2023-05-16T07:47:21;13.00;99.90
17489;DHT22;8861;52.644;4.734;2023-05-16T07:49:48;13.40;99.90
17489;DHT22;8861;52.644;4.734;2023-05-16T07:52:15;13.50;99.90
17489;DHT22;8861;52.644;4.734;2023-05-16T07:54:42;13.40;99.90
17489;DHT22;8861;52.644;4.734;2023-05-16T07:57:09;13.20;99.90
17489;DHT22;8861;52.644;4.734;2023-05-16T07:59:37;13.10;99.90
17489;DHT22;8861;52.644;4.734;2023-05-16T08:02:04;13.00;99.90
17489;DHT22;8861;52.644;4.734;2023-05-16T08:04:31;12.90;99.90
17489;DHT22;8861;52.644;4.734;2023-05-16T08:06:58;12.80;99.90
17489;DHT22;8861;52.644;4.734;2023-05-16T08:09:25;12.70;99.90
17489;DHT22;8861;52.644;4.734;2023-05-16T08:11:52;12.70;99.90
17489;DHT22;8861;52.644;4.734;2023-05-16T08:14:19;12.80;99.90
17489;DHT22;8861;52.644;4.734;2023-05-16T08:16:47;13.20;99.90
17489;DHT22;8861;52.644;4.734;2023-05-16T08:19:14;13.50;99.90
17489;DHT22;8861;52.644;4.734;2023-05-16T08:21:41;13.60;99.90
17489;DHT22;8861;52.644;4.734;2023-05-16T08:24:08;13.70;99.90
17489;DHT22;8861;52.644;4.734;2023-05-16T08:26:35;13.70;99.90
17489;DHT22;8861;52.644;4.734;2023-05-16T08:29:03;13.60;99.90
17489;DHT22;8861;52.644;4.734;2023-05-16T08:31:30;13.50;99.90
17489;DHT22;8861;52.644;4.734;2023-05-16T08:33:58;13.30;99.90
17489;DHT22;8861;52.644;4.734;2023-05-16T08:36:26;13.10;99.90
17489;DHT22;8861;52.644;4.734;2023-05-16T08:38:54;12.90;99.90
17489;DHT22;8861;52.644;4.734;2023-05-16T08:41:21;12.80;99.90
17489;DHT22;8861;52.644;4.734;2023-05-16T08:43:48;12.70;99.90
17489;DHT22;8861;52.644;4.734;2023-05-16T08:46:18;12.70;99.90
17489;DHT22;8861;52.644;4.734;2023-05-16T08:48:51;12.60;99.90
17489;DHT22;8861;52.644;4.734;2023-05-16T08:51:20;12.60;99.90
17489;DHT22;8861;52.644;4.734;2023-05-16T08:53:53;12.70;99.90
17489;DHT22;8861;52.644;4.734;2023-05-16T08:56:22;12.80;99.90
17489;DHT22;8861;52.644;4.734;2023-05-16T08:58:50;12.80;99.90
17489;DHT22;8861;52.644;4.734;2023-05-16T09:01:20;12.90;99.90
17489;DHT22;8861;52.644;4.734;2023-05-16T09:03:48;13.10;99.90
17489;DHT22;8861;52.644;4.734;2023-05-16T09:06:16;13.20;99.90
17489;DHT22;8861;52.644;4.734;2023-05-16T09:08:44;13.40;99.90
17489;DHT22;8861;52.644;4.734;2023-05-16T09:11:11;13.50;99.90
17489;DHT22;8861;52.644;4.734;2023-05-16T09:13:39;13.60;99.90
17489;DHT22;8861;52.644;4.734;2023-05-16T09:16:10;13.60;99.90
17489;DHT22;8861;52.644;4.734;2023-05-16T09:18:37;13.70;99.90
17489;DHT22;8861;52.644;4.734;2023-05-16T09:21:05;14.00;99.90
17489;DHT22;8861;52.644;4.734;2023-05-16T09:23:33;14.30;99.90
17489;DHT22;8861;52.644;4.734;2023-05-16T09:26:01;14.40;99.90
17489;DHT22;8861;52.644;4.734;2023-05-16T09:28:29;14.40;99.90
17489;DHT22;8861;52.644;4.734;2023-05-16T09:30:56;14.50;99.90
17489;DHT22;8861;52.644;4.734;2023-05-16T09:33:27;14.60;99.90
17489;DHT22;8861;52.644;4.734;2023-05-16T09:35:55;14.70;99.90
17489;DHT22;8861;52.644;4.734;2023-05-16T09:38:24;15.00;99.90
17489;DHT22;8861;52.644;4.734;2023-05-16T09:40:51;15.00;99.90
17489;DHT22;8861;52.644;4.734;2023-05-16T09:43:22;14.90;99.90
17489;DHT22;8861;52.644;4.734;2023-05-16T09:45:49;15.20;99.90
17489;DHT22;8861;52.644;4.734;2023-05-16T09:48:16;15.40;99.90
17489;DHT22;8861;52.644;4.734;2023-05-16T09:50:48;15.60;99.90
17489;DHT22;8861;52.644;4.734;2023-05-16T09:53:16;15.60;99.90
17489;DHT22;8861;52.644;4.734;2023-05-16T09:55:44;15.50;99.90
17489;DHT22;8861;52.644;4.734;2023-05-16T09:58:10;15.50;99.90
17489;DHT22;8861;52.644;4.734;2023-05-16T10:00:40;15.50;99.90
17489;DHT22;8861;52.644;4.734;2023-05-16T10:03:07;15.50;99.90
17489;DHT22;8861;52.644;4.734;2023-05-16T10:05:34;15.50;99.90
17489;DHT22;8861;52.644;4.734;2023-05-16T10:08:02;15.50;99.90
17489;DHT22;8861;52.644;4.734;2023-05-16T10:10:31;15.40;99.90
17489;DHT22;8861;52.644;4.734;2023-05-16T10:13:04;15.40;99.90
17489;DHT22;8861;52.644;4.734;2023-05-16T10:15:31;15.50;99.90
17489;DHT22;8861;52.644;4.734;2023-05-16T10:18:00;15.70;99.90
17489;DHT22;8861;52.644;4.734;2023-05-16T10:20:28;15.70;99.90
17489;DHT22;8861;52.644;4.734;2023-05-16T10:22:55;15.90;99.90
17489;DHT22;8861;52.644;4.734;2023-05-16T10:25:28;15.90;99.90
17489;DHT22;8861;52.644;4.734;2023-05-16T10:27:58;16.00;99.90
17489;DHT22;8861;52.644;4.734;2023-05-16T10:30:25;16.30;99.90
17489;DHT22;8861;52.644;4.734;2023-05-16T10:32:53;16.30;99.90
17489;DHT22;8861;52.644;4.734;2023-05-16T10:35:22;16.30;99.90
17489;DHT22;8861;52.644;4.734;2023-05-16T10:37:49;16.30;99.90
17489;DHT22;8861;52.644;4.734;2023-05-16T10:40:17;16.30;99.90
17489;DHT22;8861;52.644;4.734;2023-05-16T10:42:54;16.50;99.90
17489;DHT22;8861;52.644;4.734;2023-05-16T10:45:22;16.50;99.90
17489;DHT22;8861;52.644;4.734;2023-05-16T10:47:53;16.50;99.90
17489;DHT22;8861;52.644;4.734;2023-05-16T10:50:32;16.50;99.90
17489;DHT22;8861;52.644;4.734;2023-05-16T10:53:14;16.60;99.90
17489;DHT22;8861;52.644;4.734;2023-05-16T10:55:44;16.70;99.90
17489;DHT22;8861;52.644;4.734;2023-05-16T10:58:19;16.80;99.90
17489;DHT22;8861;52.644;4.734;2023-05-16T11:00:48;16.80;99.90
17489;DHT22;8861;52.644;4.734;2023-05-16T11:03:21;16.70;99.90
17489;DHT22;8861;52.644;4.734;2023-05-16T11:05:53;16.40;99.90
17489;DHT22;8861;52.644;4.734;2023-05-16T11:08:25;16.20;99.90
17489;DHT22;8861;52.644;4.734;2023-05-16T11:13:53;16.20;99.90
17489;DHT22;8861;52.644;4.734;2023-05-16T11:16:26;16.50;99.90
17489;DHT22;8861;52.644;4.734;2023-05-16T11:18:53;16.70;99.90
17489;DHT22;8861;52.644;4.734;2023-05-16T11:21:21;16.80;99.90
17489;DHT22;8861;52.644;4.734;2023-05-16T11:24:27;16.70;99.90
17489;DHT22;8861;52.644;4.734;2023-05-16T11:26:54;16.60;99.90
17489;DHT22;8861;52.644;4.734;2023-05-16T11:29:22;16.40;99.90
17489;DHT22;8861;52.644;4.734;2023-05-16T11:31:49;16.40;99.90
17489;DHT22;8861;52.644;4.734;2023-05-16T11:34:16;16.20;99.90
17489;DHT22;8861;52.644;4.734;2023-05-16T11:36:44;16.10;99.90
17489;DHT22;8861;52.644;4.734;2023-05-16T11:39:12;15.90;99.90
17489;DHT22;8861;52.644;4.734;2023-05-16T11:41:39;16.00;99.90
17489;DHT22;8861;52.644;4.734;2023-05-16T11:44:06;16.10;99.90
17489;DHT22;8861;52.644;4.734;2023-05-16T11:46:33;16.30;99.90
17489;DHT22;8861;52.644;4.734;2023-05-16T11:49:00;16.50;99.90
17489;DHT22;8861;52.644;4.734;2023-05-16T11:51:27;16.40;99.90
17489;DHT22;8861;52.644;4.734;2023-05-16T11:53:56;16.30;99.90
17489;DHT22;8861;52.644;4.734;2023-05-16T11:56:23;16.10;99.90
17489;DHT22;8861;52.644;4.734;2023-05-16T11:58:50;16.10;99.90
17489;DHT22;8861;52.644;4.734;2023-05-16T12:01:19;16.20;99.90
17489;DHT22;8861;52.644;4.734;2023-05-16T12:03:54;16.50;99.90
17489;DHT22;8861;52.644;4.734;2023-05-16T12:06:21;17.20;99.90
17489;DHT22;8861;52.644;4.734;2023-05-16T12:08:51;17.80;99.90
17489;DHT22;8861;52.644;4.734;2023-05-16T12:11:20;18.50;99.90
17489;DHT22;8861;52.644;4.734;2023-05-16T12:13:48;19.20;99.90
17489;DHT22;8861;52.644;4.734;2023-05-16T12:16:15;20.00;99.90
17489;DHT22;8861;52.644;4.734;2023-05-16T12:18:42;20.60;99.90
17489;DHT22;8861;52.644;4.734;2023-05-16T12:21:10;20.80;99.90
17489;DHT22;8861;52.644;4.734;2023-05-16T12:23:37;20.70;99.90
17489;DHT22;8861;52.644;4.734;2023-05-16T12:26:04;20.70;99.90
17489;DHT22;8861;52.644;4.734;2023-05-16T12:28:34;20.90;99.90
17489;DHT22;8861;52.644;4.734;2023-05-16T12:31:10;20.90;99.90
17489;DHT22;8861;52.644;4.734;2023-05-16T12:33:37;20.60;99.90
17489;DHT22;8861;52.644;4.734;2023-05-16T12:36:04;20.20;99.90
17489;DHT22;8861;52.644;4.734;2023-05-16T12:38:39;20.00;99.90
17489;DHT22;8861;52.644;4.734;2023-05-16T12:41:05;20.00;99.90
17489;DHT22;8861;52.644;4.734;2023-05-16T12:43:34;20.00;99.90
17489;DHT22;8861;52.644;4.734;2023-05-16T12:46:01;19.70;99.90
17489;DHT22;8861;52.644;4.734;2023-05-16T12:48:31;19.50;99.90
17489;DHT22;8861;52.644;4.734;2023-05-16T12:51:12;19.00;99.90
17489;DHT22;8861;52.644;4.734;2023-05-16T12:53:41;18.60;99.90
17489;DHT22;8861;52.644;4.734;2023-05-16T12:56:08;18.50;99.90
17489;DHT22;8861;52.644;4.734;2023-05-16T12:58:38;18.50;99.90
17489;DHT22;8861;52.644;4.734;2023-05-16T13:01:05;18.80;99.90
17489;DHT22;8861;52.644;4.734;2023-05-16T13:03:33;18.80;99.90
17489;DHT22;8861;52.644;4.734;2023-05-16T13:06:00;18.90;99.90
17489;DHT22;8861;52.644;4.734;2023-05-16T13:08:28;18.90;99.90
17489;DHT22;8861;52.644;4.734;2023-05-16T13:10:55;18.70;99.90
17489;DHT22;8861;52.644;4.734;2023-05-16T13:13:22;18.40;99.90
17489;DHT22;8861;52.644;4.734;2023-05-16T13:15:51;18.00;99.90
17489;DHT22;8861;52.644;4.734;2023-05-16T13:18:18;17.60;99.90
17489;DHT22;8861;52.644;4.734;2023-05-16T13:20:45;17.30;99.90
17489;DHT22;8861;52.644;4.734;2023-05-16T13:23:12;17.00;99.90
17489;DHT22;8861;52.644;4.734;2023-05-16T13:25:39;16.80;99.90
17489;DHT22;8861;52.644;4.734;2023-05-16T13:28:05;16.60;99.90
17489;DHT22;8861;52.644;4.734;2023-05-16T13:30:33;16.70;99.90
17489;DHT22;8861;52.644;4.734;2023-05-16T13:33:01;16.90;99.90
17489;DHT22;8861;52.644;4.734;2023-05-16T13:35:28;17.10;99.90
17489;DHT22;8861;52.644;4.734;2023-05-16T13:37:55;17.10;99.90
17489;DHT22;8861;52.644;4.734;2023-05-16T13:40:22;17.20;99.90
17489;DHT22;8861;52.644;4.734;2023-05-16T13:42:49;17.30;99.90
17489;DHT22;8861;52.644;4.734;2023-05-16T13:45:16;17.40;99.90
17489;DHT22;8861;52.644;4.734;2023-05-16T13:47:43;17.70;99.90
17489;DHT22;8861;52.644;4.734;2023-05-16T13:50:11;18.00;99.90
17489;DHT22;8861;52.644;4.734;2023-05-16T13:52:38;18.30;99.90
17489;DHT22;8861;52.644;4.734;2023-05-16T13:55:06;18.50;99.90
17489;DHT22;8861;52.644;4.734;2023-05-16T13:57:34;18.40;99.90
17489;DHT22;8861;52.644;4.734;2023-05-16T14:00:01;18.50;99.90
17489;DHT22;8861;52.644;4.734;2023-05-16T14:02:30;18.80;99.90
17489;DHT22;8861;52.644;4.734;2023-05-16T14:04:57;19.00;99.90
17489;DHT22;8861;52.644;4.734;2023-05-16T14:07:25;18.90;99.90
17489;DHT22;8861;52.644;4.734;2023-05-16T14:09:52;18.70;99.90
17489;DHT22;8861;52.644;4.734;2023-05-16T14:12:19;18.60;99.90
17489;DHT22;8861;52.644;4.734;2023-05-16T14:14:46;18.20;99.90
17489;DHT22;8861;52.644;4.734;2023-05-16T14:17:13;17.70;99.90
17489;DHT22;8861;52.644;4.734;2023-05-16T14:19:40;17.20;99.90
17489;DHT22;8861;52.644;4.734;2023-05-16T14:22:07;16.70;99.90
17489;DHT22;8861;52.644;4.734;2023-05-16T14:24:35;16.30;99.90
17489;DHT22;8861;52.644;4.734;2023-05-16T14:27:02;16.20;99.90
17489;DHT22;8861;52.644;4.734;2023-05-16T14:29:29;16.20;99.90
17489;DHT22;8861;52.644;4.734;2023-05-16T14:31:56;16.20;99.90
17489;DHT22;8861;52.644;4.734;2023-05-16T14:34:25;16.30;99.90
17489;DHT22;8861;52.644;4.734;2023-05-16T14:36:52;16.40;99.90
17489;DHT22;8861;52.644;4.734;2023-05-16T14:39:19;17.00;99.90
17489;DHT22;8861;52.644;4.734;2023-05-16T14:41:47;17.20;99.90
17489;DHT22;8861;52.644;4.734;2023-05-16T14:44:14;17.00;99.90
17489;DHT22;8861;52.644;4.734;2023-05-16T14:46:41;17.00;99.90
17489;DHT22;8861;52.644;4.734;2023-05-16T14:49:08;17.40;99.90
17489;DHT22;8861;52.644;4.734;2023-05-16T14:51:35;17.90;99.90
17489;DHT22;8861;52.644;4.734;2023-05-16T14:54:02;19.30;99.90
17489;DHT22;8861;52.644;4.734;2023-05-16T14:56:30;19.90;99.90
17489;DHT22;8861;52.644;4.734;2023-05-16T14:58:59;19.50;99.90
17489;DHT22;8861;52.644;4.734;2023-05-16T15:01:26;18.80;99.90
17489;DHT22;8861;52.644;4.734;2023-05-16T15:03:53;19.00;99.90
17489;DHT22;8861;52.644;4.734;2023-05-16T15:06:20;19.40;99.90
17489;DHT22;8861;52.644;4.734;2023-05-16T15:08:47;20.00;99.90
17489;DHT22;8861;52.644;4.734;2023-05-16T15:11:14;20.90;99.90
17489;DHT22;8861;52.644;4.734;2023-05-16T15:13:41;22.30;99.90
17489;DHT22;8861;52.644;4.734;2023-05-16T15:16:09;24.00;99.90
17489;DHT22;8861;52.644;4.734;2023-05-16T15:18:36;25.00;99.90
17489;DHT22;8861;52.644;4.734;2023-05-16T15:21:03;25.30;99.90
17489;DHT22;8861;52.644;4.734;2023-05-16T15:23:30;24.30;99.90
17489;DHT22;8861;52.644;4.734;2023-05-16T15:25:57;22.90;99.90
17489;DHT22;8861;52.644;4.734;2023-05-16T15:28:24;21.80;99.90
17489;DHT22;8861;52.644;4.734;2023-05-16T15:30:51;21.00;99.90
17489;DHT22;8861;52.644;4.734;2023-05-16T15:33:19;20.90;99.90
17489;DHT22;8861;52.644;4.734;2023-05-16T15:35:46;21.50;99.90
17489;DHT22;8861;52.644;4.734;2023-05-16T15:38:13;21.70;99.90
17489;DHT22;8861;52.644;4.734;2023-05-16T15:40:40;21.30;99.90
17489;DHT22;8861;52.644;4.734;2023-05-16T15:43:07;20.70;99.90
17489;DHT22;8861;52.644;4.734;2023-05-16T15:45:34;19.80;99.90
17489;DHT22;8861;52.644;4.734;2023-05-16T15:48:01;19.00;99.90
17489;DHT22;8861;52.644;4.734;2023-05-16T15:50:29;18.50;99.90
17489;DHT22;8861;52.644;4.734;2023-05-16T15:52:56;18.20;99.90
17489;DHT22;8861;52.644;4.734;2023-05-16T15:55:23;18.10;99.90
17489;DHT22;8861;52.644;4.734;2023-05-16T15:57:50;18.20;99.90
17489;DHT22;8861;52.644;4.734;2023-05-16T16:00:21;18.20;99.90